sensor_id;sensor_type;location;lat;lon;timestamp;temperature;humidity
79140;HTU21D;68546;59.142;37.948;2023-04-08T00:00:23;2.20;43.96
79140;HTU21D;68546;59.142;37.948;2023-04-08T00:02:49;2.16;43.99
79140;HTU21D;68546;59.142;37.948;2023-04-08T00:05:16;2.15;44.05
79140;HTU21D;68546;59.142;37.948;2023-04-08T00:07:42;2.14;44.09
79140;HTU21D;68546;59.142;37.948;2023-04-08T00:10:09;2.13;44.09
79140;HTU21D;68546;59.142;37.948;2023-04-08T00:12:35;2.11;44.13
79140;HTU21D;68546;59.142;37.948;2023-04-08T00:15:02;2.10;44.18
79140;HTU21D;68546;59.142;37.948;2023-04-08T00:17:28;2.08;44.22
79140;HTU21D;68546;59.142;37.948;2023-04-08T00:19:55;2.06;44.25
79140;HTU21D;68546;59.142;37.948;2023-04-08T00:22:21;2.03;44.28
79140;HTU21D;68546;59.142;37.948;2023-04-08T00:24:48;2.03;44.29
79140;HTU21D;68546;59.142;37.948;2023-04-08T00:27:14;2.00;44.32
79140;HTU21D;68546;59.142;37.948;2023-04-08T00:29:40;1.99;44.38
79140;HTU21D;68546;59.142;37.948;2023-04-08T00:32:07;1.98;44.41
79140;HTU21D;68546;59.142;37.948;2023-04-08T00:34:33;1.95;44.44
79140;HTU21D;68546;59.142;37.948;2023-04-08T00:36:59;1.96;44.48
79140;HTU21D;68546;59.142;37.948;2023-04-08T00:39:26;1.94;44.48
79140;HTU21D;68546;59.142;37.948;2023-04-08T00:41:52;1.93;44.54
79140;HTU21D;68546;59.142;37.948;2023-04-08T00:44:18;1.91;44.61
79140;HTU21D;68546;59.142;37.948;2023-04-08T00:46:49;1.90;44.70
79140;HTU21D;68546;59.142;37.948;2023-04-08T00:49:15;1.87;44.77
79140;HTU21D;68546;59.142;37.948;2023-04-08T00:51:42;1.86;44.80
79140;HTU21D;68546;59.142;37.948;2023-04-08T00:54:08;1.85;44.88
79140;HTU21D;68546;59.142;37.948;2023-04-08T00:56:35;1.82;44.93
79140;HTU21D;68546;59.142;37.948;2023-04-08T00:59:03;1.81;44.98
79140;HTU21D;68546;59.142;37.948;2023-04-08T01:01:54;1.79;44.99
79140;HTU21D;68546;59.142;37.948;2023-04-08T01:04:40;1.76;44.99
79140;HTU21D;68546;59.142;37.948;2023-04-08T01:07:16;1.73;45.08
79140;HTU21D;68546;59.142;37.948;2023-04-08T01:09:49;1.71;45.19
79140;HTU21D;68546;59.142;37.948;2023-04-08T01:12:21;1.68;45.33
79140;HTU21D;68546;59.142;37.948;2023-04-08T01:15:05;1.65;45.51
79140;HTU21D;68546;59.142;37.948;2023-04-08T01:17:33;1.63;45.64
79140;HTU21D;68546;59.142;37.948;2023-04-08T01:20:01;1.62;45.72
79140;HTU21D;68546;59.142;37.948;2023-04-08T01:22:45;1.60;45.81
79140;HTU21D;68546;59.142;37.948;2023-04-08T01:25:31;1.57;45.88
79140;HTU21D;68546;59.142;37.948;2023-04-08T01:28:18;1.55;45.93
79140;HTU21D;68546;59.142;37.948;2023-04-08T01:30:45;1.52;46.01
79140;HTU21D;68546;59.142;37.948;2023-04-08T01:33:15;1.51;46.08
79140;HTU21D;68546;59.142;37.948;2023-04-08T01:35:42;1.49;46.12
79140;HTU21D;68546;59.142;37.948;2023-04-08T01:38:13;1.47;46.21
79140;HTU21D;68546;59.142;37.948;2023-04-08T01:40:39;1.45;46.24
79140;HTU21D;68546;59.142;37.948;2023-04-08T01:43:08;1.43;46.27
79140;HTU21D;68546;59.142;37.948;2023-04-08T01:45:38;1.39;46.29
79140;HTU21D;68546;59.142;37.948;2023-04-08T01:48:04;1.38;46.38
79140;HTU21D;68546;59.142;37.948;2023-04-08T01:50:32;1.36;46.41
79140;HTU21D;68546;59.142;37.948;2023-04-08T01:53:00;1.35;46.44
79140;HTU21D;68546;59.142;37.948;2023-04-08T01:55:27;1.32;46.47
79140;HTU21D;68546;59.142;37.948;2023-04-08T01:57:55;1.31;46.53
79140;HTU21D;68546;59.142;37.948;2023-04-08T02:00:27;1.29;46.64
79140;HTU21D;68546;59.142;37.948;2023-04-08T02:02:54;1.27;46.67
79140;HTU21D;68546;59.142;37.948;2023-04-08T02:05:21;1.26;46.68
79140;HTU21D;68546;59.142;37.948;2023-04-08T02:07:47;1.24;46.73
79140;HTU21D;68546;59.142;37.948;2023-04-08T02:10:14;1.23;46.76
79140;HTU21D;68546;59.142;37.948;2023-04-08T02:12:42;1.21;46.81
79140;HTU21D;68546;59.142;37.948;2023-04-08T02:15:10;1.20;46.87
79140;HTU21D;68546;59.142;37.948;2023-04-08T02:17:44;1.19;46.98
79140;HTU21D;68546;59.142;37.948;2023-04-08T02:25:26;1.13;47.12
79140;HTU21D;68546;59.142;37.948;2023-04-08T02:27:54;1.12;47.18
79140;HTU21D;68546;59.142;37.948;2023-04-08T02:30:23;1.11;47.23
79140;HTU21D;68546;59.142;37.948;2023-04-08T02:32:51;1.10;47.30
79140;HTU21D;68546;59.142;37.948;2023-04-08T02:35:18;1.08;47.41
79140;HTU21D;68546;59.142;37.948;2023-04-08T02:37:46;1.07;47.54
79140;HTU21D;68546;59.142;37.948;2023-04-08T02:42:49;1.06;47.68
79140;HTU21D;68546;59.142;37.948;2023-04-08T02:45:15;1.08;47.80
79140;HTU21D;68546;59.142;37.948;2023-04-08T02:47:41;1.06;47.89
79140;HTU21D;68546;59.142;37.948;2023-04-08T02:50:08;1.06;48.01
79140;HTU21D;68546;59.142;37.948;2023-04-08T02:52:35;1.07;48.12
79140;HTU21D;68546;59.142;37.948;2023-04-08T02:55:01;1.07;48.18
79140;HTU21D;68546;59.142;37.948;2023-04-08T02:57:28;1.07;48.29
79140;HTU21D;68546;59.142;37.948;2023-04-08T02:59:54;1.07;48.34
79140;HTU21D;68546;59.142;37.948;2023-04-08T03:02:21;1.06;48.47
79140;HTU21D;68546;59.142;37.948;2023-04-08T03:04:47;1.07;48.56
79140;HTU21D;68546;59.142;37.948;2023-04-08T03:07:13;1.07;48.67
79140;HTU21D;68546;59.142;37.948;2023-04-08T03:09:40;1.08;48.73
79140;HTU21D;68546;59.142;37.948;2023-04-08T03:12:07;1.08;48.70
79140;HTU21D;68546;59.142;37.948;2023-04-08T03:14:33;1.09;48.69
79140;HTU21D;68546;59.142;37.948;2023-04-08T03:16:59;1.09;48.79
79140;HTU21D;68546;59.142;37.948;2023-04-08T03:19:26;1.10;48.79
79140;HTU21D;68546;59.142;37.948;2023-04-08T03:21:52;1.11;48.83
79140;HTU21D;68546;59.142;37.948;2023-04-08T03:24:18;1.12;48.86
79140;HTU21D;68546;59.142;37.948;2023-04-08T03:26:45;1.13;48.93
79140;HTU21D;68546;59.142;37.948;2023-04-08T03:29:11;1.14;49.02
79140;HTU21D;68546;59.142;37.948;2023-04-08T03:31:37;1.16;49.07
79140;HTU21D;68546;59.142;37.948;2023-04-08T03:34:04;1.19;49.15
79140;HTU21D;68546;59.142;37.948;2023-04-08T03:36:30;1.21;49.26
79140;HTU21D;68546;59.142;37.948;2023-04-08T03:38:57;1.27;49.41
79140;HTU21D;68546;59.142;37.948;2023-04-08T03:41:23;1.35;49.56
79140;HTU21D;68546;59.142;37.948;2023-04-08T03:43:49;1.49;49.76
79140;HTU21D;68546;59.142;37.948;2023-04-08T03:46:16;1.65;49.94
79140;HTU21D;68546;59.142;37.948;2023-04-08T03:48:42;1.81;50.10
79140;HTU21D;68546;59.142;37.948;2023-04-08T03:51:08;2.01;50.15
79140;HTU21D;68546;59.142;37.948;2023-04-08T03:53:35;2.19;50.14
79140;HTU21D;68546;59.142;37.948;2023-04-08T03:56:01;2.37;49.98
79140;HTU21D;68546;59.142;37.948;2023-04-08T03:58:29;2.52;49.79
79140;HTU21D;68546;59.142;37.948;2023-04-08T04:00:55;2.68;49.66
79140;HTU21D;68546;59.142;37.948;2023-04-08T04:03:22;2.81;49.47
79140;HTU21D;68546;59.142;37.948;2023-04-08T04:05:48;2.93;49.31
79140;HTU21D;68546;59.142;37.948;2023-04-08T04:08:15;3.05;49.24
79140;HTU21D;68546;59.142;37.948;2023-04-08T04:10:41;3.16;49.10
79140;HTU21D;68546;59.142;37.948;2023-04-08T04:13:07;3.26;48.82
79140;HTU21D;68546;59.142;37.948;2023-04-08T04:15:40;3.35;48.70
79140;HTU21D;68546;59.142;37.948;2023-04-08T04:18:06;3.42;48.69
79140;HTU21D;68546;59.142;37.948;2023-04-08T04:20:33;3.49;48.49
79140;HTU21D;68546;59.142;37.948;2023-04-08T04:22:59;3.58;48.34
79140;HTU21D;68546;59.142;37.948;2023-04-08T04:25:25;3.64;48.31
79140;HTU21D;68546;59.142;37.948;2023-04-08T04:27:52;3.71;48.21
79140;HTU21D;68546;59.142;37.948;2023-04-08T04:30:18;3.77;48.12
79140;HTU21D;68546;59.142;37.948;2023-04-08T04:32:44;3.84;47.85
79140;HTU21D;68546;59.142;37.948;2023-04-08T04:35:12;3.89;47.73
79140;HTU21D;68546;59.142;37.948;2023-04-08T04:37:38;3.94;47.68
79140;HTU21D;68546;59.142;37.948;2023-04-08T04:40:05;4.01;47.34
79140;HTU21D;68546;59.142;37.948;2023-04-08T04:42:32;4.03;47.35
79140;HTU21D;68546;59.142;37.948;2023-04-08T04:44:58;4.07;47.34
79140;HTU21D;68546;59.142;37.948;2023-04-08T04:47:25;4.13;47.27
79140;HTU21D;68546;59.142;37.948;2023-04-08T04:49:51;4.14;47.20
79140;HTU21D;68546;59.142;37.948;2023-04-08T04:52:18;4.15;47.08
79140;HTU21D;68546;59.142;37.948;2023-04-08T04:54:44;4.15;46.94
79140;HTU21D;68546;59.142;37.948;2023-04-08T04:57:11;4.13;46.86
79140;HTU21D;68546;59.142;37.948;2023-04-08T04:59:37;4.14;46.85
79140;HTU21D;68546;59.142;37.948;2023-04-08T05:02:03;4.14;46.87
79140;HTU21D;68546;59.142;37.948;2023-04-08T05:04:29;4.15;46.89
79140;HTU21D;68546;59.142;37.948;2023-04-08T05:06:58;4.17;46.86
79140;HTU21D;68546;59.142;37.948;2023-04-08T05:09:24;4.19;46.83
79140;HTU21D;68546;59.142;37.948;2023-04-08T05:11:50;4.20;46.76
79140;HTU21D;68546;59.142;37.948;2023-04-08T05:14:17;4.23;46.73
79140;HTU21D;68546;59.142;37.948;2023-04-08T05:16:43;4.26;46.76
79140;HTU21D;68546;59.142;37.948;2023-04-08T05:19:09;4.29;46.82
79140;HTU21D;68546;59.142;37.948;2023-04-08T05:21:36;4.33;46.81
79140;HTU21D;68546;59.142;37.948;2023-04-08T05:24:02;4.35;46.75
79140;HTU21D;68546;59.142;37.948;2023-04-08T05:26:28;4.39;46.70
79140;HTU21D;68546;59.142;37.948;2023-04-08T05:28:55;4.43;46.67
79140;HTU21D;68546;59.142;37.948;2023-04-08T05:31:22;4.47;46.57
79140;HTU21D;68546;59.142;37.948;2023-04-08T05:33:48;4.51;46.47
79140;HTU21D;68546;59.142;37.948;2023-04-08T05:36:14;4.58;46.47
79140;HTU21D;68546;59.142;37.948;2023-04-08T05:38:41;4.62;46.44
79140;HTU21D;68546;59.142;37.948;2023-04-08T05:41:10;4.68;46.36
79140;HTU21D;68546;59.142;37.948;2023-04-08T05:43:36;4.75;46.36
79140;HTU21D;68546;59.142;37.948;2023-04-08T05:46:06;4.81;46.25
79140;HTU21D;68546;59.142;37.948;2023-04-08T05:48:33;4.88;46.19
79140;HTU21D;68546;59.142;37.948;2023-04-08T05:50:59;4.94;46.07
79140;HTU21D;68546;59.142;37.948;2023-04-08T05:53:26;5.00;46.06
79140;HTU21D;68546;59.142;37.948;2023-04-08T05:55:53;5.09;45.98
79140;HTU21D;68546;59.142;37.948;2023-04-08T05:58:19;5.16;45.96
79140;HTU21D;68546;59.142;37.948;2023-04-08T06:00:46;5.24;45.85
79140;HTU21D;68546;59.142;37.948;2023-04-08T06:03:12;5.32;45.86
79140;HTU21D;68546;59.142;37.948;2023-04-08T06:05:38;5.40;45.78
79140;HTU21D;68546;59.142;37.948;2023-04-08T06:08:05;5.48;45.67
79140;HTU21D;68546;59.142;37.948;2023-04-08T06:10:31;5.56;45.57
79140;HTU21D;68546;59.142;37.948;2023-04-08T06:12:58;5.65;45.51
79140;HTU21D;68546;59.142;37.948;2023-04-08T06:15:24;5.75;45.36
79140;HTU21D;68546;59.142;37.948;2023-04-08T06:17:51;5.82;45.26
79140;HTU21D;68546;59.142;37.948;2023-04-08T06:20:17;5.89;45.12
79140;HTU21D;68546;59.142;37.948;2023-04-08T06:22:43;5.97;44.90
79140;HTU21D;68546;59.142;37.948;2023-04-08T06:25:10;6.04;44.61
79140;HTU21D;68546;59.142;37.948;2023-04-08T06:27:36;6.11;44.38
79140;HTU21D;68546;59.142;37.948;2023-04-08T06:30:03;6.19;44.13
79140;HTU21D;68546;59.142;37.948;2023-04-08T06:32:29;6.24;43.97
79140;HTU21D;68546;59.142;37.948;2023-04-08T06:34:55;6.33;43.74
79140;HTU21D;68546;59.142;37.948;2023-04-08T06:37:22;6.39;43.48
79140;HTU21D;68546;59.142;37.948;2023-04-08T06:39:49;6.45;43.23
79140;HTU21D;68546;59.142;37.948;2023-04-08T06:42:16;6.53;42.91
79140;HTU21D;68546;59.142;37.948;2023-04-08T06:44:58;6.60;42.78
79140;HTU21D;68546;59.142;37.948;2023-04-08T06:47:25;6.67;42.61
79140;HTU21D;68546;59.142;37.948;2023-04-08T06:49:51;6.75;42.45
79140;HTU21D;68546;59.142;37.948;2023-04-08T06:52:19;6.82;42.09
79140;HTU21D;68546;59.142;37.948;2023-04-08T06:54:45;6.89;41.98
79140;HTU21D;68546;59.142;37.948;2023-04-08T06:57:12;6.96;41.77
79140;HTU21D;68546;59.142;37.948;2023-04-08T06:59:38;7.03;41.61
79140;HTU21D;68546;59.142;37.948;2023-04-08T07:02:04;7.10;41.52
79140;HTU21D;68546;59.142;37.948;2023-04-08T07:04:30;7.16;41.28
79140;HTU21D;68546;59.142;37.948;2023-04-08T07:06:57;7.24;41.26
79140;HTU21D;68546;59.142;37.948;2023-04-08T07:09:23;7.31;41.06
79140;HTU21D;68546;59.142;37.948;2023-04-08T07:11:49;7.39;40.91
79140;HTU21D;68546;59.142;37.948;2023-04-08T07:14:16;7.47;40.75
79140;HTU21D;68546;59.142;37.948;2023-04-08T07:16:42;7.55;40.53
79140;HTU21D;68546;59.142;37.948;2023-04-08T07:19:08;7.61;40.30
79140;HTU21D;68546;59.142;37.948;2023-04-08T07:21:35;7.68;39.95
79140;HTU21D;68546;59.142;37.948;2023-04-08T07:24:01;7.74;39.84
79140;HTU21D;68546;59.142;37.948;2023-04-08T07:26:28;7.82;39.68
79140;HTU21D;68546;59.142;37.948;2023-04-08T07:28:54;7.87;39.43
79140;HTU21D;68546;59.142;37.948;2023-04-08T07:31:20;7.92;39.27
79140;HTU21D;68546;59.142;37.948;2023-04-08T07:33:47;7.99;39.16
79140;HTU21D;68546;59.142;37.948;2023-04-08T07:36:14;8.05;39.07
79140;HTU21D;68546;59.142;37.948;2023-04-08T07:38:40;8.13;39.01
79140;HTU21D;68546;59.142;37.948;2023-04-08T07:41:07;8.18;38.69
79140;HTU21D;68546;59.142;37.948;2023-04-08T07:43:33;8.24;38.66
79140;HTU21D;68546;59.142;37.948;2023-04-08T07:46:03;8.31;38.53
79140;HTU21D;68546;59.142;37.948;2023-04-08T07:48:30;8.38;38.33
79140;HTU21D;68546;59.142;37.948;2023-04-08T07:51:02;8.44;37.93
79140;HTU21D;68546;59.142;37.948;2023-04-08T07:53:28;8.49;37.56
79140;HTU21D;68546;59.142;37.948;2023-04-08T07:55:55;8.55;37.30
79140;HTU21D;68546;59.142;37.948;2023-04-08T07:58:21;8.59;37.13
79140;HTU21D;68546;59.142;37.948;2023-04-08T08:00:48;8.64;37.04
79140;HTU21D;68546;59.142;37.948;2023-04-08T08:03:15;8.70;36.50
79140;HTU21D;68546;59.142;37.948;2023-04-08T08:05:41;8.75;36.19
79140;HTU21D;68546;59.142;37.948;2023-04-08T08:08:08;8.81;35.90
79140;HTU21D;68546;59.142;37.948;2023-04-08T08:10:37;8.85;35.69
79140;HTU21D;68546;59.142;37.948;2023-04-08T08:13:04;8.89;35.64
79140;HTU21D;68546;59.142;37.948;2023-04-08T08:15:31;8.94;35.50
79140;HTU21D;68546;59.142;37.948;2023-04-08T08:17:58;8.98;35.28
79140;HTU21D;68546;59.142;37.948;2023-04-08T08:20:24;9.03;35.15
79140;HTU21D;68546;59.142;37.948;2023-04-08T08:22:51;9.07;35.06
79140;HTU21D;68546;59.142;37.948;2023-04-08T08:25:17;9.12;35.04
79140;HTU21D;68546;59.142;37.948;2023-04-08T08:27:44;9.18;34.85
79140;HTU21D;68546;59.142;37.948;2023-04-08T08:30:11;9.23;34.93
79140;HTU21D;68546;59.142;37.948;2023-04-08T08:32:37;9.31;34.87
79140;HTU21D;68546;59.142;37.948;2023-04-08T08:35:04;9.35;34.63
79140;HTU21D;68546;59.142;37.948;2023-04-08T08:37:30;9.40;34.51
79140;HTU21D;68546;59.142;37.948;2023-04-08T08:39:56;9.46;34.39
79140;HTU21D;68546;59.142;37.948;2023-04-08T08:42:24;9.52;34.18
79140;HTU21D;68546;59.142;37.948;2023-04-08T08:44:51;9.55;34.01
79140;HTU21D;68546;59.142;37.948;2023-04-08T08:47:17;9.60;33.82
79140;HTU21D;68546;59.142;37.948;2023-04-08T08:49:44;9.63;33.69
79140;HTU21D;68546;59.142;37.948;2023-04-08T08:52:14;9.66;33.67
79140;HTU21D;68546;59.142;37.948;2023-04-08T08:54:41;9.71;33.79
79140;HTU21D;68546;59.142;37.948;2023-04-08T08:57:18;9.77;33.85
79140;HTU21D;68546;59.142;37.948;2023-04-08T08:59:45;9.79;33.60
79140;HTU21D;68546;59.142;37.948;2023-04-08T09:02:30;9.86;33.69
79140;HTU21D;68546;59.142;37.948;2023-04-08T09:04:57;9.91;33.44
79140;HTU21D;68546;59.142;37.948;2023-04-08T09:07:25;9.96;33.31
79140;HTU21D;68546;59.142;37.948;2023-04-08T09:09:53;10.01;33.09
79140;HTU21D;68546;59.142;37.948;2023-04-08T09:12:21;10.07;33.00
79140;HTU21D;68546;59.142;37.948;2023-04-08T09:14:48;10.11;32.73
79140;HTU21D;68546;59.142;37.948;2023-04-08T09:17:15;10.16;32.30
79140;HTU21D;68546;59.142;37.948;2023-04-08T09:20:08;10.22;32.38
79140;HTU21D;68546;59.142;37.948;2023-04-08T09:22:57;10.27;32.48
79140;HTU21D;68546;59.142;37.948;2023-04-08T09:25:25;10.31;31.83
79140;HTU21D;68546;59.142;37.948;2023-04-08T09:27:52;10.35;31.81
79140;HTU21D;68546;59.142;37.948;2023-04-08T09:30:21;10.38;31.22
79140;HTU21D;68546;59.142;37.948;2023-04-08T09:32:55;10.40;31.32
79140;HTU21D;68546;59.142;37.948;2023-04-08T09:35:22;10.43;31.42
79140;HTU21D;68546;59.142;37.948;2023-04-08T09:37:50;10.46;31.31
79140;HTU21D;68546;59.142;37.948;2023-04-08T09:40:17;10.50;31.53
79140;HTU21D;68546;59.142;37.948;2023-04-08T09:42:47;10.54;31.34
79140;HTU21D;68546;59.142;37.948;2023-04-08T09:45:17;10.57;31.35
79140;HTU21D;68546;59.142;37.948;2023-04-08T09:47:56;10.60;31.35
79140;HTU21D;68546;59.142;37.948;2023-04-08T09:50:31;10.65;31.20
79140;HTU21D;68546;59.142;37.948;2023-04-08T09:53:09;10.67;31.51
79140;HTU21D;68546;59.142;37.948;2023-04-08T09:55:40;10.70;31.32
79140;HTU21D;68546;59.142;37.948;2023-04-08T09:58:15;10.72;31.18
79140;HTU21D;68546;59.142;37.948;2023-04-08T10:00:46;10.75;30.95
79140;HTU21D;68546;59.142;37.948;2023-04-08T10:03:39;10.78;31.22
79140;HTU21D;68546;59.142;37.948;2023-04-08T10:06:07;10.80;31.35
79140;HTU21D;68546;59.142;37.948;2023-04-08T10:08:35;10.82;31.63
79140;HTU21D;68546;59.142;37.948;2023-04-08T10:11:01;10.85;31.82
79140;HTU21D;68546;59.142;37.948;2023-04-08T10:13:28;10.87;31.87
79140;HTU21D;68546;59.142;37.948;2023-04-08T10:16:18;10.89;31.99
79140;HTU21D;68546;59.142;37.948;2023-04-08T10:18:45;10.92;31.83
79140;HTU21D;68546;59.142;37.948;2023-04-08T10:21:39;10.95;32.10
79140;HTU21D;68546;59.142;37.948;2023-04-08T10:24:13;10.96;32.12
79140;HTU21D;68546;59.142;37.948;2023-04-08T10:26:43;10.97;32.10
79140;HTU21D;68546;59.142;37.948;2023-04-08T10:31:49;11.02;31.99
79140;HTU21D;68546;59.142;37.948;2023-04-08T10:34:21;11.02;31.78
79140;HTU21D;68546;59.142;37.948;2023-04-08T10:36:49;11.04;31.90
79140;HTU21D;68546;59.142;37.948;2023-04-08T10:39:16;11.05;31.86
79140;HTU21D;68546;59.142;37.948;2023-04-08T10:41:46;11.08;31.84
79140;HTU21D;68546;59.142;37.948;2023-04-08T10:44:24;11.10;31.83
79140;HTU21D;68546;59.142;37.948;2023-04-08T10:46:52;11.13;31.89
79140;HTU21D;68546;59.142;37.948;2023-04-08T10:49:19;11.14;31.87
79140;HTU21D;68546;59.142;37.948;2023-04-08T10:51:47;11.16;31.76
79140;HTU21D;68546;59.142;37.948;2023-04-08T10:54:15;11.17;31.58
79140;HTU21D;68546;59.142;37.948;2023-04-08T10:56:43;11.19;31.61
79140;HTU21D;68546;59.142;37.948;2023-04-08T10:59:12;11.22;31.75
79140;HTU21D;68546;59.142;37.948;2023-04-08T11:01:43;11.25;31.80
79140;HTU21D;68546;59.142;37.948;2023-04-08T11:04:14;11.26;31.98
79140;HTU21D;68546;59.142;37.948;2023-04-08T11:06:42;11.28;32.08
79140;HTU21D;68546;59.142;37.948;2023-04-08T11:09:10;11.32;32.26
79140;HTU21D;68546;59.142;37.948;2023-04-08T11:11:36;11.33;32.19
79140;HTU21D;68546;59.142;37.948;2023-04-08T11:14:03;11.36;32.26
79140;HTU21D;68546;59.142;37.948;2023-04-08T11:16:31;11.39;32.28
79140;HTU21D;68546;59.142;37.948;2023-04-08T11:18:57;11.39;32.31
79140;HTU21D;68546;59.142;37.948;2023-04-08T11:21:24;11.42;32.09
79140;HTU21D;68546;59.142;37.948;2023-04-08T11:23:55;11.41;32.15
79140;HTU21D;68546;59.142;37.948;2023-04-08T11:26:21;11.42;32.14
79140;HTU21D;68546;59.142;37.948;2023-04-08T11:28:49;11.43;32.10
79140;HTU21D;68546;59.142;37.948;2023-04-08T11:31:17;11.44;32.02
79140;HTU21D;68546;59.142;37.948;2023-04-08T11:33:47;11.45;31.90
79140;HTU21D;68546;59.142;37.948;2023-04-08T11:36:16;11.47;31.99
79140;HTU21D;68546;59.142;37.948;2023-04-08T11:38:43;11.47;31.90
79140;HTU21D;68546;59.142;37.948;2023-04-08T11:41:10;11.47;31.90
79140;HTU21D;68546;59.142;37.948;2023-04-08T11:43:37;11.47;31.76
79140;HTU21D;68546;59.142;37.948;2023-04-08T11:46:09;11.48;31.61
79140;HTU21D;68546;59.142;37.948;2023-04-08T11:48:36;11.49;31.54
79140;HTU21D;68546;59.142;37.948;2023-04-08T11:54:31;11.52;31.81
79140;HTU21D;68546;59.142;37.948;2023-04-08T11:57:50;11.53;31.92
79140;HTU21D;68546;59.142;37.948;2023-04-08T12:03:20;11.53;31.90
79140;HTU21D;68546;59.142;37.948;2023-04-08T12:05:46;11.54;31.94
79140;HTU21D;68546;59.142;37.948;2023-04-08T12:08:13;11.54;31.79
79140;HTU21D;68546;59.142;37.948;2023-04-08T12:10:39;11.57;31.91
79140;HTU21D;68546;59.142;37.948;2023-04-08T12:13:06;11.57;31.87
79140;HTU21D;68546;59.142;37.948;2023-04-08T12:18:37;11.60;31.84
79140;HTU21D;68546;59.142;37.948;2023-04-08T12:21:03;11.60;31.82
79140;HTU21D;68546;59.142;37.948;2023-04-08T12:23:30;11.60;31.72
79140;HTU21D;68546;59.142;37.948;2023-04-08T12:25:56;11.62;31.77
79140;HTU21D;68546;59.142;37.948;2023-04-08T12:28:23;11.62;31.69
79140;HTU21D;68546;59.142;37.948;2023-04-08T12:30:49;11.64;31.57
79140;HTU21D;68546;59.142;37.948;2023-04-08T12:33:15;11.66;31.65
79140;HTU21D;68546;59.142;37.948;2023-04-08T12:35:42;11.67;31.57
79140;HTU21D;68546;59.142;37.948;2023-04-08T12:38:08;11.68;31.48
79140;HTU21D;68546;59.142;37.948;2023-04-08T12:40:34;11.70;31.48
79140;HTU21D;68546;59.142;37.948;2023-04-08T12:43:01;11.69;31.44
79140;HTU21D;68546;59.142;37.948;2023-04-08T12:45:27;11.70;31.31
79140;HTU21D;68546;59.142;37.948;2023-04-08T12:47:53;11.70;31.35
79140;HTU21D;68546;59.142;37.948;2023-04-08T12:50:20;11.72;31.16
79140;HTU21D;68546;59.142;37.948;2023-04-08T12:52:46;11.72;31.17
79140;HTU21D;68546;59.142;37.948;2023-04-08T12:55:12;11.71;31.19
79140;HTU21D;68546;59.142;37.948;2023-04-08T12:57:39;11.72;31.21
79140;HTU21D;68546;59.142;37.948;2023-04-08T13:00:06;11.71;31.19
79140;HTU21D;68546;59.142;37.948;2023-04-08T13:02:53;11.72;31.26
79140;HTU21D;68546;59.142;37.948;2023-04-08T13:05:20;11.72;31.16
79140;HTU21D;68546;59.142;37.948;2023-04-08T13:07:46;11.71;31.11
79140;HTU21D;68546;59.142;37.948;2023-04-08T13:10:12;11.70;31.00
79140;HTU21D;68546;59.142;37.948;2023-04-08T13:12:39;11.70;30.95
79140;HTU21D;68546;59.142;37.948;2023-04-08T13:15:06;11.69;30.79
79140;HTU21D;68546;59.142;37.948;2023-04-08T13:17:32;11.70;30.81
79140;HTU21D;68546;59.142;37.948;2023-04-08T13:19:59;11.69;30.65
79140;HTU21D;68546;59.142;37.948;2023-04-08T13:22:25;11.68;30.64
79140;HTU21D;68546;59.142;37.948;2023-04-08T13:24:52;11.68;30.71
79140;HTU21D;68546;59.142;37.948;2023-04-08T13:27:18;11.68;30.79
79140;HTU21D;68546;59.142;37.948;2023-04-08T13:29:44;11.66;30.80
79140;HTU21D;68546;59.142;37.948;2023-04-08T13:32:11;11.68;30.90
79140;HTU21D;68546;59.142;37.948;2023-04-08T13:34:37;11.68;30.93
79140;HTU21D;68546;59.142;37.948;2023-04-08T13:37:05;11.67;31.01
79140;HTU21D;68546;59.142;37.948;2023-04-08T13:39:32;11.68;30.96
79140;HTU21D;68546;59.142;37.948;2023-04-08T13:41:58;11.68;31.06
79140;HTU21D;68546;59.142;37.948;2023-04-08T13:44:24;11.68;31.02
79140;HTU21D;68546;59.142;37.948;2023-04-08T13:46:51;11.67;30.90
79140;HTU21D;68546;59.142;37.948;2023-04-08T13:49:18;11.67;30.87
79140;HTU21D;68546;59.142;37.948;2023-04-08T13:51:45;11.66;30.90
79140;HTU21D;68546;59.142;37.948;2023-04-08T13:54:11;11.64;30.72
79140;HTU21D;68546;59.142;37.948;2023-04-08T13:56:38;11.66;30.61
79140;HTU21D;68546;59.142;37.948;2023-04-08T13:59:04;11.62;30.59
79140;HTU21D;68546;59.142;37.948;2023-04-08T14:01:30;11.63;30.55
79140;HTU21D;68546;59.142;37.948;2023-04-08T14:03:57;11.64;30.54
79140;HTU21D;68546;59.142;37.948;2023-04-08T14:06:23;11.62;30.47
79140;HTU21D;68546;59.142;37.948;2023-04-08T14:08:49;11.62;30.49
79140;HTU21D;68546;59.142;37.948;2023-04-08T14:11:16;11.61;30.44
79140;HTU21D;68546;59.142;37.948;2023-04-08T14:13:42;11.61;30.51
79140;HTU21D;68546;59.142;37.948;2023-04-08T14:16:08;11.59;30.42
79140;HTU21D;68546;59.142;37.948;2023-04-08T14:18:35;11.59;30.24
79140;HTU21D;68546;59.142;37.948;2023-04-08T14:21:01;11.58;30.38
79140;HTU21D;68546;59.142;37.948;2023-04-08T14:23:27;11.57;30.25
79140;HTU21D;68546;59.142;37.948;2023-04-08T14:25:54;11.55;30.23
79140;HTU21D;68546;59.142;37.948;2023-04-08T14:28:20;11.54;30.22
79140;HTU21D;68546;59.142;37.948;2023-04-08T14:30:46;11.53;30.12
79140;HTU21D;68546;59.142;37.948;2023-04-08T14:33:12;11.52;30.17
79140;HTU21D;68546;59.142;37.948;2023-04-08T14:35:39;11.49;30.16
79140;HTU21D;68546;59.142;37.948;2023-04-08T14:38:05;11.48;30.03
79140;HTU21D;68546;59.142;37.948;2023-04-08T14:40:31;11.47;30.13
79140;HTU21D;68546;59.142;37.948;2023-04-08T14:42:58;11.44;30.18
79140;HTU21D;68546;59.142;37.948;2023-04-08T14:45:24;11.44;30.06
79140;HTU21D;68546;59.142;37.948;2023-04-08T14:47:50;11.42;30.10
79140;HTU21D;68546;59.142;37.948;2023-04-08T14:50:17;11.42;30.00
79140;HTU21D;68546;59.142;37.948;2023-04-08T14:52:44;11.40;30.11
79140;HTU21D;68546;59.142;37.948;2023-04-08T14:55:13;11.40;29.93
79140;HTU21D;68546;59.142;37.948;2023-04-08T14:57:40;11.37;29.93
79140;HTU21D;68546;59.142;37.948;2023-04-08T15:00:06;11.36;29.97
79140;HTU21D;68546;59.142;37.948;2023-04-08T15:02:33;11.32;30.03
79140;HTU21D;68546;59.142;37.948;2023-04-08T15:04:59;11.31;30.00
79140;HTU21D;68546;59.142;37.948;2023-04-08T15:07:25;11.28;30.08
79140;HTU21D;68546;59.142;37.948;2023-04-08T15:09:52;11.26;29.97
79140;HTU21D;68546;59.142;37.948;2023-04-08T15:12:19;11.25;29.97
79140;HTU21D;68546;59.142;37.948;2023-04-08T15:14:46;11.23;29.96
79140;HTU21D;68546;59.142;37.948;2023-04-08T15:17:12;11.19;30.13
79140;HTU21D;68546;59.142;37.948;2023-04-08T15:19:38;11.17;30.16
79140;HTU21D;68546;59.142;37.948;2023-04-08T15:22:04;11.15;30.26
79140;HTU21D;68546;59.142;37.948;2023-04-08T15:24:31;11.12;30.32
79140;HTU21D;68546;59.142;37.948;2023-04-08T15:26:57;11.09;30.36
79140;HTU21D;68546;59.142;37.948;2023-04-08T15:29:23;11.07;30.42
79140;HTU21D;68546;59.142;37.948;2023-04-08T15:31:51;11.03;30.49
79140;HTU21D;68546;59.142;37.948;2023-04-08T15:34:17;10.99;30.49